createdAt,value
2023-02-25T00:00:49.846Z,94868.72
2023-02-25T00:02:03.852Z,94871.22
2023-02-25T00:03:10.627Z,94866.09
2023-02-25T00:04:13.860Z,94876.34
2023-02-25T00:05:57.760Z,94880.56
2023-02-25T00:07:02.156Z,94884.78
2023-02-25T00:08:07.190Z,94878.00
2023-02-25T00:09:11.514Z,94870.38
2023-02-25T00:10:17.474Z,94874.53
2023-02-25T00:11:36.462Z,94872.06
2023-02-25T00:13:17.420Z,94869.41
2023-02-25T00:14:20.679Z,94861.03
2023-02-25T00:15:25.568Z,94869.75
2023-02-25T00:16:33.169Z,94872.34
2023-02-25T00:17:41.268Z,94879.97
2023-02-25T00:18:49.004Z,94873.25
2023-02-25T00:19:56.700Z,94880.94
2023-02-25T00:21:00.440Z,94878.38
2023-02-25T00:22:06.819Z,94880.13
2023-02-25T00:23:08.881Z,94874.25
2023-02-25T00:24:16.682Z,94887.00
2023-02-25T00:25:19.272Z,94875.03
2023-02-25T00:26:25.766Z,94876.81
2023-02-25T00:27:30.666Z,94881.91
2023-02-25T00:28:46.243Z,94876.09
2023-02-25T00:29:48.546Z,94872.72
2023-02-25T00:31:02.089Z,94878.69
2023-02-25T00:32:09.811Z,94889.66
2023-02-25T00:33:13.495Z,94889.66
2023-02-25T00:34:25.786Z,94884.56
2023-02-25T00:35:28.342Z,94880.38
2023-02-25T00:36:34.596Z,94887.97
2023-02-25T00:37:40.240Z,94880.38
2023-02-25T00:38:48.453Z,94882.75
2023-02-25T00:39:50.662Z,94875.97
2023-02-25T00:40:55.421Z,94880.25
2023-02-25T00:41:57.690Z,94880.13
2023-02-25T00:43:02.552Z,94879.31
2023-02-25T00:44:05.464Z,94880.25
2023-02-25T00:45:11.761Z,94879.31
2023-02-25T00:46:13.982Z,94885.25
2023-02-25T00:47:22.806Z,94881.09
2023-02-25T00:48:25.011Z,94868.38
2023-02-25T00:49:32.463Z,94876.81
2023-02-25T00:50:35.052Z,94882.75
2023-02-25T00:51:41.846Z,94875.19
2023-02-25T00:52:44.148Z,94871.81
2023-02-25T00:53:52.908Z,94877.63
2023-02-25T00:54:55.372Z,94881.09
2023-02-25T00:56:14.053Z,94876.09
2023-02-25T00:57:20.395Z,94884.59
2023-02-25T00:58:26.682Z,94887.28
2023-02-25T00:59:31.596Z,94883.94
2023-02-25T01:00:46.465Z,94881.25
2023-02-25T01:02:01.144Z,94893.09
2023-02-25T01:03:06.178Z,94882.94
2023-02-25T01:04:11.934Z,94892.41
2023-02-25T01:05:15.011Z,94880.44
2023-02-25T01:06:20.466Z,94886.44
2023-02-25T01:07:24.578Z,94884.78
2023-02-25T01:08:29.414Z,94883.06
2023-02-25T01:09:31.664Z,94877.16
2023-02-25T01:10:36.540Z,94870.41
2023-02-25T01:11:40.750Z,94878.94
2023-02-25T01:12:50.079Z,94883.31
2023-02-25T01:13:54.870Z,94870.28
2023-02-25T01:15:00.443Z,94874.72
2023-02-25T01:16:02.773Z,94873.81
2023-02-25T01:17:09.875Z,94877.03
2023-02-25T01:18:31.105Z,94882.03
2023-02-25T01:19:36.091Z,94888.72
2023-02-25T01:20:39.661Z,94888.72
2023-02-25T01:21:48.307Z,94883.78
2023-02-25T01:22:53.176Z,94881.03
2023-02-25T01:24:00.440Z,94888.88
2023-02-25T01:25:02.678Z,94888.09
2023-02-25T01:26:08.258Z,94889.72
2023-02-25T01:27:11.855Z,94890.50
2023-02-25T01:28:18.758Z,94890.63
2023-02-25T01:29:22.986Z,94894.13
2023-02-25T01:30:27.876Z,94907.63
2023-02-25T01:31:31.687Z,94904.28
2023-02-25T01:32:42.613Z,94911.91
2023-02-25T01:33:51.538Z,94910.25
2023-02-25T01:35:03.519Z,94891.50
2023-02-25T01:36:06.604Z,94891.69
2023-02-25T01:37:13.753Z,94894.03
2023-02-25T01:38:16.170Z,94899.94
2023-02-25T01:39:22.715Z,94892.28
2023-02-25T01:40:25.070Z,94886.50
2023-02-25T01:41:31.975Z,94883.81
2023-02-25T01:42:34.146Z,94884.84
2023-02-25T01:43:39.172Z,94879.75
2023-02-25T01:45:11.007Z,94891.06
2023-02-25T01:46:17.774Z,94897.25
2023-02-25T01:47:22.876Z,94893.69
2023-02-25T01:48:30.993Z,94892.13
2023-02-25T01:49:43.275Z,94887.91
2023-02-25T01:50:53.403Z,94893.81
2023-02-25T01:52:00.937Z,94900.47
2023-02-25T01:53:08.975Z,94904.53
2023-02-25T01:54:15.130Z,94906.13
2023-02-25T01:55:18.319Z,94909.75
2023-02-25T01:56:26.826Z,94908.13
2023-02-25T01:57:30.611Z,94913.25
2023-02-25T01:58:36.893Z,94914.03
2023-02-25T01:59:42.161Z,94920.78
2023-02-25T02:00:48.314Z,94931.03
2023-02-25T02:01:51.755Z,94927.72
2023-02-25T02:02:58.513Z,94923.38
2023-02-25T02:04:07.333Z,94934.47
2023-02-25T02:05:15.489Z,94927.00
2023-02-25T02:06:24.363Z,94920.22
2023-02-25T02:07:31.054Z,94922.09
2023-02-25T02:08:34.881Z,94921.88
2023-02-25T02:09:43.309Z,94916.75
2023-02-25T02:10:48.275Z,94914.94
2023-02-25T02:11:56.413Z,94909.16
2023-02-25T02:13:00.918Z,94905.66
2023-02-25T02:14:08.659Z,94906.41
2023-02-25T02:15:25.017Z,94900.47
2023-02-25T02:17:02.650Z,94899.75
2023-02-25T02:18:07.946Z,94893.00
2023-02-25T02:19:30.430Z,94898.03
2023-02-25T02:20:50.550Z,94894.94
2023-02-25T02:22:05.747Z,94900.72
2023-02-25T02:23:45.389Z,94899.06
2023-02-25T02:25:30.104Z,94899.75
2023-02-25T02:26:54.637Z,94900.59
2023-02-25T02:28:29.503Z,94893.81
2023-02-25T02:30:01.395Z,94896.41
2023-02-25T02:31:24.942Z,94896.41
2023-02-25T02:32:41.015Z,94897.03
2023-02-25T02:33:52.570Z,94910.00
2023-02-25T02:35:09.613Z,94913.34
2023-02-25T02:36:21.258Z,94910.78
2023-02-25T02:37:35.731Z,94921.88
2023-02-25T02:38:51.696Z,94914.16
2023-02-25T02:40:21.366Z,94915.88
2023-02-25T02:41:29.788Z,94926.03
2023-02-25T02:44:07.542Z,94917.66
2023-02-25T02:45:18.409Z,94925.34
2023-02-25T02:46:34.635Z,94937.34
2023-02-25T02:47:39.753Z,94923.59
2023-02-25T02:48:55.575Z,94930.44
2023-02-25T02:50:02.928Z,94927.00
2023-02-25T02:51:14.241Z,94936.34
2023-02-25T02:52:21.055Z,94942.22
2023-02-25T02:53:35.206Z,94940.56
2023-02-25T02:54:39.607Z,94932.09
2023-02-25T02:55:49.454Z,94936.34
2023-02-25T02:56:57.424Z,94940.63
2023-02-25T02:58:08.512Z,94944.91
2023-02-25T02:59:21.403Z,94950.00
2023-02-25T03:00:30.508Z,94960.34
2023-02-25T03:01:42.066Z,94951.84
2023-02-25T03:03:05.516Z,94945.78
2023-02-25T03:04:12.697Z,94952.69
2023-02-25T03:05:27.479Z,94953.59
2023-02-25T03:06:34.525Z,94949.28
2023-02-25T03:07:44.525Z,94940.13
2023-02-25T03:08:57.155Z,94943.47
2023-02-25T03:10:05.775Z,94947.69
2023-02-25T03:11:10.616Z,94945.19
2023-02-25T03:12:25.911Z,94954.56
2023-02-25T03:13:32.811Z,94954.69
2023-02-25T03:14:39.411Z,94959.75
2023-02-25T03:15:49.132Z,94958.03
2023-02-25T03:17:03.697Z,94951.97
2023-02-25T03:18:23.030Z,94953.69
2023-02-25T03:19:36.393Z,94951.16
2023-02-25T03:20:44.867Z,94957.09
2023-02-25T03:21:53.241Z,94959.69
2023-02-25T03:23:00.139Z,94964.81
2023-02-25T03:24:09.426Z,94968.25
2023-02-25T03:25:18.203Z,94959.78
2023-02-25T03:26:27.214Z,94965.81
2023-02-25T03:27:35.829Z,94966.59
2023-02-25T03:28:44.717Z,94966.53
2023-02-25T03:29:47.362Z,94971.81
2023-02-25T03:31:01.536Z,94976.94
2023-02-25T03:32:14.776Z,94971.03
2023-02-25T03:33:48.714Z,94966.03
2023-02-25T03:35:00.207Z,94966.88
2023-02-25T03:36:07.638Z,94972.88
2023-02-25T03:37:19.132Z,94968.41
2023-02-25T03:38:31.087Z,94969.09
2023-02-25T03:39:41.595Z,94969.19
2023-02-25T03:40:58.738Z,94970.03
2023-02-25T03:42:07.823Z,94973.59
2023-02-25T03:43:18.397Z,94970.03
2023-02-25T03:44:28.631Z,94975.25
2023-02-25T03:45:37.032Z,94977.09
2023-02-25T03:46:56.592Z,94974.69
2023-02-25T03:48:08.279Z,94976.38
2023-02-25T03:49:26.976Z,94980.66
2023-02-25T03:50:39.355Z,94976.53
2023-02-25T03:51:47.056Z,94983.47
2023-02-25T03:52:56.617Z,94986.16
2023-02-25T03:54:05.908Z,94986.25
2023-02-25T03:55:13.585Z,94980.09
2023-02-25T03:56:17.810Z,94978.41
2023-02-25T03:57:35.295Z,94970.59
2023-02-25T03:58:40.386Z,94980.09
2023-02-25T03:59:46.465Z,94981.06
2023-02-25T04:00:51.656Z,94982.69
2023-02-25T04:01:59.440Z,94986.03
2023-02-25T04:03:05.785Z,94988.59
2023-02-25T04:04:10.739Z,94989.47
2023-02-25T04:05:13.107Z,94993.81
2023-02-25T04:06:18.005Z,95002.44
2023-02-25T04:07:20.369Z,94989.56
2023-02-25T04:08:25.551Z,94996.47
2023-02-25T04:09:29.285Z,94998.13
2023-02-25T04:10:34.574Z,94995.47
2023-02-25T04:11:37.104Z,94998.97
2023-02-25T04:12:42.302Z,95006.72
2023-02-25T04:14:07.047Z,95002.44
2023-02-25T04:15:11.439Z,94993.13
2023-02-25T04:16:14.562Z,94994.91
2023-02-25T04:17:19.605Z,94999.22
2023-02-25T04:18:25.116Z,95005.13
2023-02-25T04:19:31.248Z,95000.84
2023-02-25T04:20:33.974Z,95006.75
2023-02-25T04:21:40.258Z,95001.69
2023-02-25T04:22:44.518Z,94998.19
2023-02-25T04:23:51.746Z,95002.47
2023-02-25T04:24:53.973Z,94993.34
2023-02-25T04:26:00.411Z,94999.22
2023-02-25T04:27:02.774Z,95000.09
2023-02-25T04:28:07.858Z,94993.47
2023-02-25T04:29:10.115Z,94993.47
2023-02-25T04:30:16.576Z,94993.50
2023-02-25T04:31:20.177Z,94990.94
2023-02-25T04:32:25.329Z,94994.41
2023-02-25T04:33:33.069Z,94999.34
2023-02-25T04:34:35.796Z,94993.34
2023-02-25T04:35:43.221Z,94990.94
2023-02-25T04:36:48.662Z,94995.22
2023-02-25T04:37:54.660Z,94987.59
2023-02-25T04:38:57.708Z,94988.44
2023-02-25T04:40:02.725Z,94991.66
2023-02-25T04:41:05.168Z,94985.78
2023-02-25T04:42:10.348Z,94985.00
2023-02-25T04:43:12.653Z,94984.22
2023-02-25T04:44:17.499Z,94986.78
2023-02-25T04:45:26.873Z,94992.78
2023-02-25T04:46:34.063Z,94991.94
2023-02-25T04:47:36.646Z,95012.53
2023-02-25T04:48:45.729Z,94989.44
2023-02-25T04:49:48.099Z,95002.31
2023-02-25T04:50:52.964Z,95004.09
2023-02-25T04:52:18.212Z,95009.19
2023-02-25T04:53:23.581Z,95011.66
2023-02-25T04:54:25.864Z,95001.41
2023-02-25T04:55:30.825Z,95000.56
2023-02-25T04:56:34.754Z,94998.88
2023-02-25T04:57:42.595Z,95011.72
2023-02-25T04:58:45.364Z,95007.53
2023-02-25T04:59:51.999Z,95004.19
2023-02-25T05:00:57.777Z,94997.31
2023-02-25T05:02:02.814Z,95004.88
2023-02-25T05:03:04.993Z,95005.78
2023-02-25T05:04:17.014Z,95007.53
2023-02-25T05:05:19.634Z,94998.97
2023-02-25T05:06:26.264Z,95004.88
2023-02-25T05:07:28.324Z,95017.66
2023-02-25T05:08:45.118Z,95016.03
2023-02-25T05:09:48.544Z,95006.72
2023-02-25T05:10:53.979Z,95016.06
2023-02-25T05:11:56.258Z,95014.31
2023-02-25T05:13:01.382Z,95015.19
2023-02-25T05:14:03.790Z,95020.34
2023-02-25T05:15:10.917Z,95017.88
2023-02-25T05:16:35.228Z,95016.06
2023-02-25T05:17:40.335Z,95016.00
2023-02-25T05:18:44.729Z,95025.34
2023-02-25T05:19:52.236Z,95015.13
2023-02-25T05:20:54.364Z,95016.94
2023-02-25T05:22:03.685Z,95012.66
2023-02-25T05:23:06.042Z,95014.31
2023-02-25T05:24:11.418Z,95021.16
2023-02-25T05:25:14.573Z,95010.72
2023-02-25T05:26:23.974Z,95010.00
2023-02-25T05:27:27.842Z,95000.66
2023-02-25T05:28:32.761Z,95015.19
2023-02-25T05:29:35.222Z,95005.84
2023-02-25T05:30:44.093Z,95002.47
2023-02-25T05:31:47.193Z,94992.81
2023-02-25T05:32:52.239Z,95003.22
2023-02-25T05:33:56.210Z,94998.28
2023-02-25T05:35:04.012Z,95003.38
2023-02-25T05:36:07.258Z,95010.91
2023-02-25T05:37:12.127Z,95004.19
2023-02-25T05:38:14.393Z,94995.63
2023-02-25T05:39:19.268Z,95007.66
2023-02-25T05:40:21.330Z,95000.84
2023-02-25T05:41:26.198Z,95009.25
2023-02-25T05:42:28.456Z,95009.25
2023-02-25T05:43:34.987Z,95017.03
2023-02-25T05:44:37.220Z,95016.06
2023-02-25T05:45:42.052Z,95017.06
2023-02-25T05:46:44.722Z,95023.94
2023-02-25T05:47:50.100Z,95017.09
2023-02-25T05:48:52.401Z,95025.56
2023-02-25T05:49:57.286Z,95024.84
2023-02-25T05:51:07.113Z,95020.44
2023-02-25T05:52:12.239Z,95021.38
2023-02-25T05:53:14.616Z,95019.72
2023-02-25T05:54:21.255Z,95027.44
2023-02-25T05:55:24.440Z,95017.22
2023-02-25T05:56:32.296Z,95025.66
2023-02-25T05:57:35.006Z,95024.13
2023-02-25T05:58:41.741Z,95036.63
2023-02-25T05:59:45.058Z,95030.69
2023-02-25T06:00:49.991Z,95032.50
2023-02-25T06:01:55.073Z,95024.72
2023-02-25T06:03:00.771Z,95033.19
2023-02-25T06:04:03.258Z,95024.72
2023-02-25T06:05:09.515Z,95029.84
2023-02-25T06:06:15.983Z,95020.63
2023-02-25T06:07:21.009Z,95025.78
2023-02-25T06:08:25.259Z,95031.50
2023-02-25T06:09:30.495Z,95035.78
2023-02-25T06:10:40.227Z,95031.72
2023-02-25T06:11:51.068Z,95030.84
2023-02-25T06:12:53.535Z,95034.16
2023-02-25T06:14:01.050Z,95035.97
2023-02-25T06:15:03.882Z,95036.72
2023-02-25T06:16:09.908Z,95031.50
2023-02-25T06:17:12.340Z,95036.50
2023-02-25T06:18:18.299Z,95034.84
2023-02-25T06:19:20.596Z,95038.19
2023-02-25T06:20:25.479Z,95038.19
2023-02-25T06:21:31.166Z,95036.56
2023-02-25T06:22:36.168Z,95040.78
2023-02-25T06:23:41.102Z,95032.28
2023-02-25T06:24:48.888Z,95030.53
2023-02-25T06:25:51.254Z,95033.91
2023-02-25T06:26:56.037Z,95039.06
2023-02-25T06:27:58.615Z,95036.63
2023-02-25T06:29:06.545Z,95041.69
2023-02-25T06:30:11.957Z,95043.25
2023-02-25T06:31:19.496Z,95043.31
2023-02-25T06:32:21.944Z,95051.66
2023-02-25T06:33:27.199Z,95057.53
2023-02-25T06:34:33.182Z,95061.13
2023-02-25T06:35:39.404Z,95062.00
2023-02-25T06:36:44.426Z,95056.13
2023-02-25T06:37:49.501Z,95059.44
2023-02-25T06:38:53.697Z,95061.88
2023-02-25T06:40:00.259Z,95054.97
2023-02-25T06:41:17.155Z,95052.28
2023-02-25T06:42:22.154Z,95054.97
2023-02-25T06:43:24.489Z,95049.94
2023-02-25T06:44:31.071Z,95055.19
2023-02-25T06:45:33.467Z,95060.25
2023-02-25T06:46:40.769Z,95061.13
2023-02-25T06:47:45.271Z,95056.88
2023-02-25T06:48:50.285Z,95048.31
2023-02-25T06:49:53.966Z,95042.19
2023-02-25T06:50:59.127Z,95053.31
2023-02-25T06:52:07.094Z,95053.22
2023-02-25T06:53:09.976Z,95053.22
2023-02-25T06:54:14.840Z,95050.53
2023-02-25T06:55:19.463Z,95046.13
2023-02-25T06:56:24.722Z,95049.69
2023-02-25T06:57:30.089Z,95060.00
2023-02-25T06:58:35.171Z,95055.63
2023-02-25T06:59:40.738Z,95053.94
2023-02-25T07:00:47.161Z,95053.94
2023-02-25T07:01:55.639Z,95063.22
2023-02-25T07:03:05.822Z,95062.94
2023-02-25T07:04:08.163Z,95062.16
2023-02-25T07:05:15.100Z,95060.47
2023-02-25T07:06:20.894Z,95059.38
2023-02-25T07:07:30.730Z,95064.66
2023-02-25T07:08:37.721Z,95074.63
2023-02-25T07:09:47.882Z,95062.84
2023-02-25T07:10:53.313Z,95068.59
2023-02-25T07:12:00.176Z,95069.63
2023-02-25T07:13:09.024Z,95071.38
2023-02-25T07:14:20.455Z,95069.72
2023-02-25T07:15:23.991Z,95075.75
2023-02-25T07:16:32.364Z,95067.03
2023-02-25T07:17:34.527Z,95067.88
2023-02-25T07:18:39.414Z,95070.28
2023-02-25T07:19:41.940Z,95071.09
2023-02-25T07:20:46.804Z,95069.47
2023-02-25T07:21:50.011Z,95076.38
2023-02-25T07:22:57.350Z,95059.97
2023-02-25T07:24:00.248Z,95080.28
2023-02-25T07:25:08.332Z,95078.53
2023-02-25T07:26:14.793Z,95082.25
2023-02-25T07:27:21.191Z,95084.16
2023-02-25T07:28:26.692Z,95072.84
2023-02-25T07:29:37.328Z,95069.09
2023-02-25T07:30:41.803Z,95068.59
2023-02-25T07:31:58.964Z,95063.25
2023-02-25T07:33:03.386Z,95071.03
2023-02-25T07:34:08.526Z,95069.50
2023-02-25T07:35:12.820Z,95062.72
2023-02-25T07:36:19.968Z,95067.78
2023-02-25T07:37:25.117Z,95070.91
2023-02-25T07:38:34.553Z,95065.44
2023-02-25T07:39:47.640Z,95065.31
2023-02-25T07:40:50.591Z,95060.09
2023-02-25T07:42:02.713Z,95068.41
2023-02-25T07:43:08.769Z,95057.66
2023-02-25T07:44:20.709Z,95069.81
2023-02-25T07:45:25.120Z,95068.66
2023-02-25T07:46:39.623Z,95063.22
2023-02-25T07:47:43.415Z,95055.88
2023-02-25T07:48:55.414Z,95061.69
2023-02-25T07:49:59.288Z,95065.53
2023-02-25T07:51:18.832Z,95067.94
2023-02-25T07:52:21.213Z,95068.56
2023-02-25T07:53:29.149Z,95052.34
2023-02-25T07:54:36.139Z,95060.59
2023-02-25T07:55:41.201Z,95060.22
2023-02-25T07:56:47.126Z,95060.78
2023-02-25T07:57:52.081Z,95052.16
2023-02-25T07:58:55.619Z,95061.69
2023-02-25T08:00:03.044Z,95062.91
2023-02-25T08:01:08.618Z,95059.19
2023-02-25T08:02:14.412Z,95059.06
2023-02-25T08:03:27.020Z,95068.59
2023-02-25T08:04:32.577Z,95057.56
2023-02-25T08:05:35.550Z,95062.47
2023-02-25T08:06:46.520Z,95064.78
2023-02-25T08:07:52.859Z,95051.56
2023-02-25T08:08:57.834Z,95059.34
2023-02-25T08:10:25.429Z,95059.78
2023-02-25T08:11:32.434Z,95059.03
2023-02-25T08:12:40.795Z,95051.47
2023-02-25T08:13:48.788Z,95045.03
2023-02-25T08:14:53.069Z,95043.97
2023-02-25T08:16:22.088Z,95047.97
2023-02-25T08:17:29.524Z,95048.03
2023-02-25T08:18:33.620Z,95042.78
2023-02-25T08:19:41.455Z,95047.97
2023-02-25T08:20:48.425Z,95052.09
2023-02-25T08:23:23.577Z,95058.31
2023-02-25T08:24:30.480Z,95070.00
2023-02-25T08:25:41.700Z,95058.31
2023-02-25T08:26:48.226Z,95065.66
2023-02-25T08:28:01.382Z,95062.22
2023-02-25T08:29:18.804Z,95071.13
2023-02-25T08:30:23.018Z,95074.47
2023-02-25T08:31:29.837Z,95069.41
2023-02-25T08:32:35.536Z,95076.78
2023-02-25T08:33:46.815Z,95078.25
2023-02-25T08:34:53.968Z,95068.41
2023-02-25T08:36:01.660Z,95077.22
2023-02-25T08:37:04.207Z,95077.34
2023-02-25T08:38:10.363Z,95076.66
2023-02-25T08:39:15.058Z,95063.06
2023-02-25T08:40:21.105Z,95059.41
2023-02-25T08:41:32.283Z,95051.09
2023-02-25T08:42:37.326Z,95060.56
2023-02-25T08:43:43.353Z,95054.31
2023-02-25T08:44:48.468Z,95060.50
2023-02-25T08:46:28.834Z,95058.91
2023-02-25T08:47:37.937Z,95056.81
2023-02-25T08:48:44.544Z,95059.69
2023-02-25T08:49:55.362Z,95051.28
2023-02-25T08:51:06.160Z,95071.91
2023-02-25T08:52:13.311Z,95052.13
2023-02-25T08:53:17.020Z,95051.75
2023-02-25T08:54:22.944Z,95054.56
2023-02-25T08:55:26.030Z,95049.53
2023-02-25T08:56:35.618Z,95037.16
2023-02-25T08:57:37.911Z,95046.47
2023-02-25T08:58:45.472Z,95040.91
2023-02-25T08:59:52.510Z,95044.69
2023-02-25T09:00:55.492Z,95044.81
2023-02-25T09:02:01.924Z,95048.03
2023-02-25T09:03:09.185Z,95051.09
2023-02-25T09:04:14.770Z,95066.19
2023-02-25T09:05:20.568Z,95063.50
2023-02-25T09:06:30.881Z,95068.56
2023-02-25T09:07:33.866Z,95067.22
2023-02-25T09:08:46.980Z,95063.81
2023-02-25T09:09:49.664Z,95056.03
2023-02-25T09:10:56.208Z,95056.81
2023-02-25T09:12:05.527Z,95053.41
2023-02-25T09:13:07.947Z,95056.66
2023-02-25T09:14:13.302Z,95059.50
2023-02-25T09:15:15.522Z,95057.25
2023-02-25T09:16:22.858Z,95058.53
2023-02-25T09:17:29.037Z,95059.31
2023-02-25T09:18:32.447Z,95050.59
2023-02-25T09:19:39.101Z,95046.03
2023-02-25T09:20:41.758Z,95060.72
2023-02-25T09:21:52.460Z,95060.16
2023-02-25T09:23:00.425Z,95066.59
2023-02-25T09:24:06.959Z,95048.31
2023-02-25T09:25:13.735Z,95049.19
2023-02-25T09:26:18.562Z,95053.69
2023-02-25T09:27:28.496Z,95059.81
2023-02-25T09:28:33.730Z,95049.47
2023-02-25T09:29:39.780Z,95053.22
2023-02-25T09:30:48.247Z,95057.63
2023-02-25T09:31:51.006Z,95044.56
2023-02-25T09:32:58.030Z,95055.38
2023-02-25T09:34:01.625Z,95042.03
2023-02-25T09:35:07.551Z,95057.50
2023-02-25T09:36:14.761Z,95051.31
2023-02-25T09:37:20.158Z,95049.03
2023-02-25T09:38:26.306Z,95048.03
2023-02-25T09:39:28.774Z,95049.50
2023-02-25T09:40:33.769Z,95045.69
2023-02-25T09:41:47.482Z,95041.31
2023-02-25T09:43:07.081Z,95043.25
2023-02-25T09:44:17.112Z,95063.88
2023-02-25T09:45:28.620Z,95053.81
2023-02-25T09:46:35.794Z,95063.84
2023-02-25T09:47:48.349Z,95045.91
2023-02-25T09:48:55.339Z,95042.09
2023-02-25T09:50:04.696Z,95033.28
2023-02-25T09:51:21.368Z,95042.34
2023-02-25T09:52:36.450Z,95040.16
2023-02-25T09:53:49.544Z,95046.75
2023-02-25T09:55:02.259Z,95054.84
2023-02-25T09:56:09.922Z,95037.47
2023-02-25T09:57:19.856Z,95056.34
2023-02-25T09:58:34.351Z,95052.38
2023-02-25T09:59:36.886Z,95041.28
2023-02-25T10:00:46.004Z,95060.38
2023-02-25T10:01:57.013Z,95049.31
2023-02-25T10:03:08.245Z,95046.03
2023-02-25T10:04:24.425Z,95050.28
2023-02-25T10:05:39.381Z,95048.06
2023-02-25T10:06:58.882Z,95044.53
2023-02-25T10:08:21.118Z,95043.91
2023-02-25T10:09:34.477Z,95045.94
2023-02-25T10:10:49.604Z,95037.19
2023-02-25T10:11:55.425Z,95043.44
2023-02-25T10:13:12.898Z,95042.34
2023-02-25T10:14:37.703Z,95042.94
2023-02-25T10:15:59.930Z,95035.91
2023-02-25T10:17:12.771Z,95028.72
2023-02-25T10:18:33.223Z,95048.69
2023-02-25T10:19:52.913Z,95050.25
2023-02-25T10:21:12.817Z,95065.84
2023-02-25T10:22:37.402Z,95049.19
2023-02-25T10:24:01.136Z,95045.16
2023-02-25T10:25:12.253Z,95049.56
2023-02-25T10:26:22.748Z,95047.22
2023-02-25T10:27:33.046Z,95045.94
2023-02-25T10:28:38.611Z,95056.06
2023-02-25T10:29:51.206Z,95042.25
2023-02-25T10:31:02.445Z,95049.81
2023-02-25T10:32:19.855Z,95042.09
2023-02-25T10:33:27.492Z,95045.44
2023-02-25T10:34:33.371Z,95046.41
2023-02-25T10:35:58.839Z,95043.84
2023-02-25T10:37:04.119Z,95039.28
2023-02-25T10:38:09.081Z,95024.84
2023-02-25T10:39:17.288Z,95037.31
2023-02-25T10:40:22.137Z,95025.41
2023-02-25T10:41:31.342Z,95033.03
2023-02-25T10:42:37.295Z,95040.22
2023-02-25T10:43:44.463Z,95034.91
2023-02-25T10:44:55.580Z,95033.72
2023-02-25T10:46:14.451Z,95022.59
2023-02-25T10:47:35.857Z,95017.41
2023-02-25T10:48:43.611Z,95030.97
2023-02-25T10:50:16.132Z,95022.88
2023-02-25T10:51:22.209Z,95029.00
2023-02-25T10:52:24.874Z,95031.06
2023-02-25T10:53:51.275Z,95030.38
2023-02-25T10:54:56.373Z,95041.03
2023-02-25T10:56:07.010Z,95029.13
2023-02-25T10:57:19.114Z,95035.91
2023-02-25T10:58:28.361Z,95039.88
2023-02-25T10:59:38.831Z,95037.13
2023-02-25T11:00:46.441Z,95039.06
2023-02-25T11:01:52.151Z,95037.78
2023-02-25T11:03:15.854Z,95036.63
2023-02-25T11:04:26.430Z,95024.22
2023-02-25T11:05:38.425Z,95024.91
2023-02-25T11:06:45.533Z,95024.59
2023-02-25T11:07:49.937Z,95020.28
2023-02-25T11:08:56.617Z,95020.94
2023-02-25T11:10:17.966Z,95013.88
2023-02-25T11:11:25.987Z,95021.09
2023-02-25T11:12:39.750Z,95031.06
2023-02-25T11:13:45.460Z,95017.91
2023-02-25T11:14:52.217Z,95013.38
2023-02-25T11:16:02.920Z,95013.38
2023-02-25T11:17:12.452Z,95017.16
2023-02-25T11:18:22.519Z,95014.56
2023-02-25T11:19:32.274Z,95008.59
2023-02-25T11:20:36.215Z,95023.81
2023-02-25T11:21:43.112Z,95018.91
2023-02-25T11:22:46.926Z,95016.22
2023-02-25T11:23:53.554Z,95018.00
2023-02-25T11:25:01.096Z,95019.41
2023-02-25T11:26:07.173Z,95018.44
2023-02-25T11:27:37.241Z,95014.56
2023-02-25T11:28:45.482Z,95007.84
2023-02-25T11:29:54.705Z,95008.00
2023-02-25T11:31:08.081Z,95016.94
2023-02-25T11:32:17.130Z,95016.72
2023-02-25T11:33:25.922Z,95022.25
2023-02-25T11:34:34.940Z,95012.44
2023-02-25T11:35:43.332Z,95016.94
2023-02-25T11:36:50.861Z,95026.69
2023-02-25T11:37:54.939Z,95019.00
2023-02-25T11:39:18.582Z,95021.19
2023-02-25T11:40:25.078Z,95017.72
2023-02-25T11:41:34.601Z,95024.00
2023-02-25T11:42:40.281Z,95030.41
2023-02-25T11:43:45.256Z,95028.44
2023-02-25T11:44:47.936Z,95030.19
2023-02-25T11:45:57.746Z,95028.13
2023-02-25T11:47:26.920Z,95045.88
2023-02-25T11:48:34.903Z,95024.56
2023-02-25T11:50:08.827Z,95022.19
2023-02-25T11:51:28.320Z,95025.84
2023-02-25T11:52:39.593Z,95029.34
2023-02-25T11:54:03.209Z,95032.50
2023-02-25T11:55:27.225Z,95018.59
2023-02-25T11:56:34.429Z,95025.06
2023-02-25T11:57:49.667Z,95036.00
2023-02-25T11:59:10.644Z,95033.22
2023-02-25T12:00:29.990Z,95024.25
2023-02-25T12:01:52.622Z,95020.19
2023-02-25T12:03:10.623Z,95026.69
2023-02-25T12:04:45.678Z,95019.19
2023-02-25T12:05:59.427Z,95028.63
2023-02-25T12:07:23.179Z,95016.88
2023-02-25T12:08:46.589Z,95021.34
2023-02-25T12:10:15.592Z,95014.31
2023-02-25T12:12:03.997Z,95017.53
2023-02-25T12:13:29.123Z,95020.19
2023-02-25T12:15:06.461Z,95015.19
2023-02-25T12:16:45.327Z,95018.41
2023-02-25T12:18:24.426Z,95017.16
2023-02-25T12:20:08.537Z,95009.75
2023-02-25T12:21:35.964Z,95013.22
2023-02-25T12:23:09.674Z,95013.78
2023-02-25T12:24:44.388Z,95008.69
2023-02-25T12:25:57.785Z,95003.69
2023-02-25T12:27:21.345Z,95008.28
2023-02-25T12:28:53.358Z,95001.81
2023-02-25T12:30:32.683Z,95006.53
2023-02-25T12:32:17.399Z,95002.25
2023-02-25T12:33:53.339Z,95005.78
2023-02-25T12:35:27.926Z,95017.88
2023-02-25T12:36:47.461Z,95007.44
2023-02-25T12:38:27.124Z,94995.59
2023-02-25T12:39:50.750Z,94994.81
2023-02-25T12:41:24.431Z,94995.44
2023-02-25T12:42:39.534Z,94998.75
2023-02-25T12:43:52.512Z,94997.25
2023-02-25T12:45:23.340Z,94997.97
2023-02-25T12:46:38.723Z,94996.50
2023-02-25T12:47:54.598Z,94998.53
2023-02-25T12:49:37.089Z,95001.09
2023-02-25T12:51:08.601Z,95002.41
2023-02-25T12:52:27.461Z,95010.34
2023-02-25T12:53:43.858Z,95007.38
2023-02-25T12:55:13.112Z,95015.19
2023-02-25T12:56:39.939Z,95019.41
2023-02-25T12:57:52.210Z,95021.56
2023-02-25T12:59:31.591Z,95013.13
2023-02-25T13:01:06.117Z,95028.09
2023-02-25T13:02:45.850Z,95020.41
2023-02-25T13:04:15.816Z,95011.41
2023-02-25T13:05:51.397Z,95009.38
2023-02-25T13:07:11.148Z,94999.31
2023-02-25T13:08:27.914Z,94994.66
2023-02-25T13:09:55.310Z,94992.41
2023-02-25T13:11:10.668Z,94989.75
2023-02-25T13:12:31.862Z,94994.66
2023-02-25T13:14:06.514Z,94984.69
2023-02-25T13:15:14.474Z,94992.81
2023-02-25T13:16:32.138Z,94997.75
2023-02-25T13:18:06.126Z,94980.69
2023-02-25T13:19:32.752Z,94981.47
2023-02-25T13:20:59.365Z,94974.03
2023-02-25T13:22:14.297Z,94987.03
2023-02-25T13:23:38.381Z,94978.59
2023-02-25T13:24:50.961Z,94977.16
2023-02-25T13:26:22.446Z,94987.91
2023-02-25T13:28:02.802Z,94995.00
2023-02-25T13:29:23.101Z,94990.00
2023-02-25T13:30:36.319Z,94988.84
2023-02-25T13:31:51.663Z,94983.69
2023-02-25T13:33:15.722Z,94989.34
2023-02-25T13:34:37.762Z,94993.91
2023-02-25T13:35:45.355Z,94995.31
2023-02-25T13:37:07.464Z,94992.34
2023-02-25T13:38:28.715Z,94997.66
2023-02-25T13:39:56.360Z,94998.97
2023-02-25T13:41:19.007Z,94989.72
2023-02-25T13:42:43.537Z,94994.59
2023-02-25T13:44:06.940Z,94994.81
2023-02-25T13:45:36.081Z,94993.69
2023-02-25T13:47:10.869Z,94993.56
2023-02-25T13:48:41.887Z,94989.31
2023-02-25T13:50:19.252Z,94982.06
2023-02-25T13:51:40.174Z,94986.75